createdAt,value
2022-12-03T00:00:18.309Z,77.21
2022-12-03T00:02:44.944Z,77.31
2022-12-03T00:05:11.562Z,77.32
2022-12-03T00:07:38.307Z,77.42
2022-12-03T00:10:06.098Z,77.43
2022-12-03T00:12:32.614Z,77.43
2022-12-03T00:14:59.019Z,77.44
2022-12-03T00:17:25.445Z,77.27
2022-12-03T00:19:51.880Z,77.62
2022-12-03T00:22:18.226Z,77.53
2022-12-03T00:24:44.601Z,77.57
2022-12-03T00:27:13.364Z,77.52
2022-12-03T00:29:39.883Z,77.63
2022-12-03T00:32:06.419Z,77.82
2022-12-03T00:34:32.875Z,77.34
2022-12-03T00:36:59.266Z,77.52
2022-12-03T00:39:25.740Z,77.37
2022-12-03T00:41:53.145Z,77.56
2022-12-03T00:44:19.496Z,77.35
2022-12-03T00:46:52.067Z,77.57
2022-12-03T00:49:18.616Z,77.37
2022-12-03T00:51:45.154Z,77.62
2022-12-03T00:54:11.777Z,77.43
2022-12-03T00:56:38.312Z,77.99
2022-12-03T00:59:07.152Z,77.78
2022-12-03T01:01:33.706Z,77.80
2022-12-03T01:04:00.302Z,77.98
2022-12-03T01:06:26.812Z,77.90
2022-12-03T01:08:56.251Z,78.15
2022-12-03T01:11:37.748Z,78.32
2022-12-03T01:14:09.715Z,78.47
2022-12-03T01:16:36.775Z,78.18
2022-12-03T01:19:04.695Z,78.42
2022-12-03T01:21:31.450Z,78.67
2022-12-03T01:23:58.015Z,78.68
2022-12-03T01:26:25.544Z,78.89
2022-12-03T01:28:56.583Z,78.70
2022-12-03T01:31:44.534Z,79.06
2022-12-03T01:34:11.050Z,79.08
2022-12-03T01:36:38.147Z,78.67
2022-12-03T01:39:04.971Z,78.92
2022-12-03T01:41:33.196Z,79.26
2022-12-03T01:44:00.033Z,79.25
2022-12-03T01:46:39.431Z,79.44
2022-12-03T01:49:06.988Z,79.31
2022-12-03T01:51:33.480Z,79.00
2022-12-03T01:54:01.315Z,79.38
2022-12-03T01:56:28.213Z,79.20
2022-12-03T01:58:54.620Z,79.37
2022-12-03T02:01:21.107Z,79.65
2022-12-03T02:03:47.714Z,79.64
2022-12-03T02:06:17.466Z,79.62
2022-12-03T02:08:44.228Z,79.53
2022-12-03T02:11:18.675Z,79.54
2022-12-03T02:13:46.266Z,79.68
2022-12-03T02:16:12.787Z,79.70
2022-12-03T02:18:40.626Z,80.12
2022-12-03T02:21:23.764Z,79.87
2022-12-03T02:24:03.975Z,80.18
2022-12-03T02:26:30.412Z,80.02
2022-12-03T02:28:57.229Z,79.92
2022-12-03T02:31:24.251Z,80.08
2022-12-03T02:33:51.070Z,80.07
2022-12-03T02:36:17.481Z,80.17
2022-12-03T02:38:46.069Z,80.01
2022-12-03T02:41:37.486Z,80.21
2022-12-03T02:44:06.776Z,80.23
2022-12-03T02:46:34.217Z,80.29
2022-12-03T02:49:01.864Z,80.20
2022-12-03T02:51:28.347Z,80.06
2022-12-03T02:53:56.705Z,80.11
2022-12-03T02:56:29.540Z,80.33
2022-12-03T02:59:00.309Z,80.39
2022-12-03T03:01:26.888Z,80.51
2022-12-03T03:03:53.987Z,80.34
2022-12-03T03:06:21.185Z,80.65
2022-12-03T03:08:48.622Z,80.55
2022-12-03T03:11:15.064Z,80.92
2022-12-03T03:13:41.724Z,80.97
2022-12-03T03:16:09.084Z,80.81
2022-12-03T03:18:36.500Z,80.82
2022-12-03T03:21:04.399Z,80.91
2022-12-03T03:23:30.857Z,80.93
2022-12-03T03:26:08.480Z,80.81
2022-12-03T03:28:38.385Z,80.71
2022-12-03T03:31:07.968Z,80.92
2022-12-03T03:33:35.558Z,81.11
2022-12-03T03:36:02.403Z,81.11
2022-12-03T03:38:29.953Z,81.04
2022-12-03T03:40:57.927Z,81.10
2022-12-03T03:43:25.063Z,80.90
2022-12-03T03:45:53.789Z,81.09
2022-12-03T03:48:21.950Z,81.08
2022-12-03T03:50:49.352Z,81.29
2022-12-03T03:53:17.486Z,81.08
2022-12-03T03:55:44.254Z,81.61
2022-12-03T03:58:11.100Z,81.36
2022-12-03T04:00:37.655Z,81.64
2022-12-03T04:03:04.674Z,81.62
2022-12-03T04:05:31.619Z,81.58
2022-12-03T04:07:59.265Z,81.18
2022-12-03T04:10:44.573Z,81.24
2022-12-03T04:13:11.038Z,81.26
2022-12-03T04:15:37.424Z,81.35
2022-12-03T04:18:22.626Z,81.58
2022-12-03T04:20:49.052Z,81.55
2022-12-03T04:23:15.442Z,81.53
2022-12-03T04:26:00.830Z,81.26
2022-12-03T04:28:45.763Z,81.13
2022-12-03T04:31:30.528Z,81.11
2022-12-03T04:34:15.376Z,81.16
2022-12-03T04:36:41.778Z,81.17
2022-12-03T04:39:08.160Z,81.10
2022-12-03T04:41:34.571Z,81.30
2022-12-03T04:44:19.772Z,81.12
2022-12-03T04:46:46.146Z,81.02
2022-12-03T04:49:12.844Z,81.40
2022-12-03T04:51:39.276Z,81.18
2022-12-03T04:54:05.712Z,81.19
2022-12-03T04:56:34.438Z,81.26
2022-12-03T04:59:00.855Z,81.21
2022-12-03T05:01:27.367Z,81.00
2022-12-03T05:03:53.818Z,80.80
2022-12-03T05:06:20.384Z,81.18
2022-12-03T05:08:46.799Z,81.19
2022-12-03T05:11:13.282Z,81.05
2022-12-03T05:13:39.693Z,80.91
2022-12-03T05:16:06.454Z,80.92
2022-12-03T05:18:32.904Z,81.32
2022-12-03T05:20:59.306Z,81.32
2022-12-03T05:23:25.789Z,81.32
2022-12-03T05:25:52.323Z,81.36
2022-12-03T05:28:20.294Z,80.95
2022-12-03T05:30:46.730Z,81.27
2022-12-03T05:33:13.169Z,81.33
2022-12-03T05:35:43.014Z,80.91
2022-12-03T05:38:09.515Z,81.17
2022-12-03T05:40:35.974Z,80.70
2022-12-03T05:43:02.512Z,80.57
2022-12-03T05:45:33.213Z,80.96
2022-12-03T05:48:00.779Z,81.08
2022-12-03T05:50:30.322Z,80.69
2022-12-03T05:52:57.776Z,80.77
2022-12-03T05:55:25.203Z,80.66
2022-12-03T05:57:51.958Z,80.52
2022-12-03T06:00:21.934Z,80.59
2022-12-03T06:02:48.721Z,80.38
2022-12-03T06:05:16.103Z,80.71
2022-12-03T06:07:43.328Z,80.50
2022-12-03T06:10:15.168Z,80.72
2022-12-03T06:12:42.460Z,80.71
2022-12-03T06:15:12.147Z,81.15
2022-12-03T06:17:38.746Z,81.12
2022-12-03T06:20:06.350Z,80.63
2022-12-03T06:22:32.826Z,80.88
2022-12-03T06:25:03.573Z,80.90
2022-12-03T06:27:32.830Z,80.86
2022-12-03T06:29:59.269Z,81.24
2022-12-03T06:32:25.773Z,81.25
2022-12-03T06:34:52.359Z,80.98
2022-12-03T06:37:19.150Z,81.01
2022-12-03T06:39:45.634Z,81.25
2022-12-03T06:42:12.001Z,80.76
2022-12-03T06:44:38.359Z,80.78
2022-12-03T06:47:07.322Z,81.01
2022-12-03T06:49:33.712Z,80.68
2022-12-03T06:52:00.190Z,80.70
2022-12-03T06:54:26.937Z,80.63
2022-12-03T06:56:53.370Z,80.72
2022-12-03T06:59:19.852Z,80.80
2022-12-03T07:01:46.336Z,80.77
2022-12-03T07:04:12.970Z,80.85
2022-12-03T07:06:39.431Z,81.04
2022-12-03T07:09:05.839Z,80.83
2022-12-03T07:11:32.288Z,80.81
2022-12-03T07:14:05.511Z,80.80
2022-12-03T07:16:33.253Z,80.92
2022-12-03T07:18:59.867Z,80.90
2022-12-03T07:21:26.256Z,80.79
2022-12-03T07:23:58.709Z,80.88
2022-12-03T07:26:27.374Z,81.24
2022-12-03T07:28:53.900Z,81.33
2022-12-03T07:31:23.034Z,81.06
2022-12-03T07:33:49.502Z,80.84
2022-12-03T07:36:15.905Z,80.48
2022-12-03T07:38:42.411Z,80.78
2022-12-03T07:41:08.845Z,80.63
2022-12-03T07:43:37.947Z,80.54
2022-12-03T07:46:04.430Z,80.02
2022-12-03T07:48:30.935Z,79.60
2022-12-03T07:51:00.379Z,78.45
2022-12-03T07:53:26.900Z,78.41
2022-12-03T07:55:55.634Z,77.69
2022-12-03T07:58:25.030Z,77.62
2022-12-03T08:00:51.645Z,77.74
2022-12-03T08:03:18.082Z,77.64
2022-12-03T08:05:44.431Z,77.29
2022-12-03T08:08:10.831Z,77.35
2022-12-03T08:10:37.367Z,77.10
2022-12-03T08:13:10.575Z,76.63
2022-12-03T08:15:39.478Z,76.66
2022-12-03T08:18:32.932Z,76.89
2022-12-03T08:21:18.039Z,77.34
2022-12-03T08:23:44.536Z,76.78
2022-12-03T08:26:26.214Z,77.26
2022-12-03T08:28:53.084Z,77.23
2022-12-03T08:31:32.325Z,76.79
2022-12-03T08:34:13.101Z,76.71
2022-12-03T08:36:39.552Z,76.33
2022-12-03T08:39:23.410Z,76.37
2022-12-03T08:42:15.043Z,76.38
2022-12-03T08:44:41.445Z,75.91
2022-12-03T08:47:13.767Z,76.09
2022-12-03T08:49:40.421Z,75.81
2022-12-03T08:52:15.161Z,75.65
2022-12-03T08:54:42.996Z,75.83
2022-12-03T08:57:30.279Z,75.85
2022-12-03T09:00:21.568Z,76.07
2022-12-03T09:02:51.054Z,76.07
2022-12-03T09:05:30.067Z,76.30
2022-12-03T09:07:56.728Z,76.44
2022-12-03T09:10:23.085Z,76.73
2022-12-03T09:12:49.727Z,76.09
2022-12-03T09:15:16.581Z,76.27
2022-12-03T09:17:45.587Z,76.79
2022-12-03T09:20:12.260Z,76.30
2022-12-03T09:22:38.617Z,76.42
2022-12-03T09:25:05.823Z,76.33
2022-12-03T09:27:32.186Z,76.46
2022-12-03T09:30:01.584Z,76.76
2022-12-03T09:32:28.206Z,76.47
2022-12-03T09:34:54.906Z,76.17
2022-12-03T09:37:22.243Z,76.21
2022-12-03T09:39:48.582Z,76.28
2022-12-03T09:42:19.234Z,76.21
2022-12-03T09:44:45.897Z,76.50
2022-12-03T09:47:16.270Z,76.80
2022-12-03T09:49:43.080Z,77.34
2022-12-03T09:52:16.501Z,77.22
2022-12-03T09:54:47.277Z,77.64
2022-12-03T09:57:14.225Z,77.91
2022-12-03T09:59:40.740Z,78.06
2022-12-03T10:02:20.888Z,77.96
2022-12-03T10:04:48.229Z,78.31
2022-12-03T10:07:14.803Z,78.49
2022-12-03T10:09:41.687Z,78.24
2022-12-03T10:12:12.159Z,78.69
2022-12-03T10:14:39.149Z,78.74
2022-12-03T10:17:05.731Z,79.29
2022-12-03T10:19:35.506Z,79.30
2022-12-03T10:22:02.010Z,79.40
2022-12-03T10:24:34.300Z,79.45
2022-12-03T10:27:05.565Z,79.07
2022-12-03T10:29:35.097Z,79.52
2022-12-03T10:32:10.016Z,79.66
2022-12-03T10:34:38.697Z,79.63
2022-12-03T10:37:20.519Z,79.77
2022-12-03T10:40:13.246Z,79.94
2022-12-03T10:42:41.539Z,79.92
2022-12-03T10:45:26.739Z,80.04
2022-12-03T10:48:17.159Z,79.77
2022-12-03T10:50:55.401Z,79.76
2022-12-03T10:53:24.341Z,79.97
2022-12-03T10:55:52.556Z,80.32
2022-12-03T10:58:22.598Z,80.30
2022-12-03T11:00:51.267Z,80.13
2022-12-03T11:03:23.718Z,80.37
2022-12-03T11:05:51.430Z,80.66
2022-12-03T11:08:21.044Z,80.70
2022-12-03T11:11:08.405Z,80.74
2022-12-03T11:13:34.765Z,80.29
2022-12-03T11:16:03.830Z,80.21
2022-12-03T11:18:37.336Z,79.51
2022-12-03T11:21:06.590Z,79.65
2022-12-03T11:23:44.865Z,80.04
2022-12-03T11:26:26.933Z,80.00
2022-12-03T11:28:55.856Z,79.82
2022-12-03T11:31:40.105Z,79.74
2022-12-03T11:34:18.604Z,79.70
2022-12-03T11:37:10.036Z,79.95
2022-12-03T11:39:52.188Z,80.07
2022-12-03T11:42:27.621Z,79.87
2022-12-03T11:45:03.672Z,79.73
2022-12-03T11:47:34.451Z,80.22
2022-12-03T11:50:01.118Z,79.71
2022-12-03T11:52:30.996Z,80.18
2022-12-03T11:55:05.367Z,79.91
2022-12-03T11:57:35.451Z,80.09
2022-12-03T12:00:22.768Z,80.37
2022-12-03T12:02:53.783Z,79.95
2022-12-03T12:05:32.444Z,80.35
2022-12-03T12:08:01.198Z,80.09
2022-12-03T12:11:02.424Z,79.94
2022-12-03T12:13:31.607Z,79.51
2022-12-03T12:16:06.910Z,79.77
2022-12-03T12:18:41.492Z,80.00
2022-12-03T12:21:39.756Z,80.56
2022-12-03T12:24:41.770Z,80.63
2022-12-03T12:27:10.423Z,80.52
2022-12-03T12:29:39.116Z,79.97
2022-12-03T12:32:17.232Z,80.06
2022-12-03T12:34:53.360Z,80.48
2022-12-03T12:37:33.815Z,80.53
2022-12-03T12:40:06.045Z,80.84
2022-12-03T12:42:37.548Z,80.41
2022-12-03T12:45:26.381Z,80.76
2022-12-03T12:48:18.441Z,80.88
2022-12-03T12:50:47.700Z,80.63
2022-12-03T12:53:23.406Z,80.64
2022-12-03T12:56:14.049Z,80.96
2022-12-03T12:58:40.925Z,80.95
2022-12-03T13:01:16.812Z,80.97
2022-12-03T13:03:43.607Z,80.98
2022-12-03T13:06:17.944Z,80.91
2022-12-03T13:08:47.985Z,80.85
2022-12-03T13:11:35.949Z,81.68
2022-12-03T13:14:19.258Z,81.09
2022-12-03T13:16:48.159Z,80.85
2022-12-03T13:19:21.518Z,81.12
2022-12-03T13:21:50.964Z,80.71
2022-12-03T13:24:29.320Z,81.04
2022-12-03T13:26:58.272Z,80.88
2022-12-03T13:29:26.806Z,80.98
2022-12-03T13:31:59.217Z,80.95
2022-12-03T13:34:28.591Z,80.94
2022-12-03T13:36:58.378Z,80.99
2022-12-03T13:39:32.170Z,81.04
2022-12-03T13:42:39.093Z,81.01
2022-12-03T13:45:14.918Z,80.80
2022-12-03T13:47:44.674Z,80.62
2022-12-03T13:50:21.641Z,80.57
2022-12-03T13:52:48.483Z,80.16
2022-12-03T13:55:24.547Z,80.24
2022-12-03T13:57:51.039Z,80.12
2022-12-03T14:00:17.833Z,79.63
2022-12-03T14:02:44.295Z,79.76
2022-12-03T14:05:11.058Z,79.51
2022-12-03T14:07:38.522Z,78.92
2022-12-03T14:10:07.073Z,78.97
2022-12-03T14:12:33.967Z,78.39
2022-12-03T14:15:01.858Z,78.47
2022-12-03T14:17:28.682Z,78.08
2022-12-03T14:20:00.521Z,77.71
2022-12-03T14:22:27.313Z,77.42
2022-12-03T14:24:54.257Z,77.54
2022-12-03T14:27:21.304Z,77.53
2022-12-03T14:29:47.804Z,77.23
2022-12-03T14:32:14.151Z,77.37
2022-12-03T14:34:40.676Z,77.33
2022-12-03T14:37:09.644Z,77.78
2022-12-03T14:39:37.053Z,76.78
2022-12-03T14:42:13.096Z,77.02
2022-12-03T14:44:45.356Z,77.20
2022-12-03T14:47:13.099Z,76.53
2022-12-03T14:49:39.749Z,76.83
2022-12-03T14:52:09.872Z,76.77
2022-12-03T14:54:42.633Z,76.35
2022-12-03T14:57:11.662Z,76.51
2022-12-03T14:59:39.161Z,76.44
2022-12-03T15:02:05.681Z,76.51
2022-12-03T15:04:32.132Z,76.56
2022-12-03T15:06:58.612Z,76.04
2022-12-03T15:09:25.069Z,76.03
2022-12-03T15:11:51.588Z,76.49
2022-12-03T15:14:18.152Z,76.14
2022-12-03T15:16:44.776Z,75.97
2022-12-03T15:19:13.608Z,75.93
2022-12-03T15:21:40.092Z,76.04
2022-12-03T15:24:06.887Z,76.01
2022-12-03T15:26:33.269Z,76.28
2022-12-03T15:28:59.661Z,76.45
2022-12-03T15:31:26.065Z,76.90
2022-12-03T15:33:52.456Z,76.45
2022-12-03T15:36:18.842Z,76.32
2022-12-03T15:38:45.243Z,76.28
2022-12-03T15:41:28.802Z,75.91
2022-12-03T15:43:57.462Z,76.11
2022-12-03T15:46:24.552Z,75.61
2022-12-03T15:48:50.983Z,75.82
2022-12-03T15:51:17.594Z,75.85
2022-12-03T15:53:44.013Z,75.69
2022-12-03T15:56:11.964Z,75.85
2022-12-03T15:58:41.048Z,75.78
2022-12-03T16:01:09.240Z,75.79
2022-12-03T16:03:36.480Z,75.44
2022-12-03T16:06:02.874Z,75.98
2022-12-03T16:08:29.338Z,75.72
2022-12-03T16:10:55.860Z,75.70
2022-12-03T16:13:22.409Z,76.06
2022-12-03T16:15:51.786Z,76.10
2022-12-03T16:18:18.193Z,76.12
2022-12-03T16:20:44.597Z,76.02
2022-12-03T16:23:10.921Z,76.43
2022-12-03T16:25:37.361Z,76.16
2022-12-03T16:28:03.949Z,76.33
2022-12-03T16:30:30.462Z,76.58
2022-12-03T16:32:57.092Z,76.56
2022-12-03T16:35:23.604Z,77.03
2022-12-03T16:37:50.014Z,76.89
2022-12-03T16:40:16.511Z,76.87
2022-12-03T16:42:42.948Z,77.35
2022-12-03T16:45:09.778Z,76.85
2022-12-03T16:47:37.533Z,76.64
2022-12-03T16:50:07.565Z,76.56
2022-12-03T16:52:34.878Z,76.09
2022-12-03T16:55:01.689Z,75.85
2022-12-03T16:57:33.424Z,75.71
2022-12-03T17:00:00.564Z,76.03
2022-12-03T17:02:27.466Z,76.00
2022-12-03T17:04:54.132Z,75.94
2022-12-03T17:07:20.688Z,75.78
2022-12-03T17:09:47.113Z,76.21
2022-12-03T17:12:13.516Z,76.09
2022-12-03T17:14:39.925Z,76.16
2022-12-03T17:17:06.526Z,76.17
2022-12-03T17:19:32.974Z,76.34
2022-12-03T17:21:59.841Z,76.83
2022-12-03T17:24:26.270Z,76.80
2022-12-03T17:26:52.603Z,77.17
2022-12-03T17:29:19.010Z,77.15
2022-12-03T17:31:45.447Z,76.59
2022-12-03T17:34:12.012Z,77.36
2022-12-03T17:36:38.411Z,77.62
2022-12-03T17:39:04.743Z,77.12
2022-12-03T17:41:31.117Z,76.85
2022-12-03T17:43:57.505Z,76.39
2022-12-03T17:46:28.708Z,76.47
2022-12-03T17:48:55.111Z,76.19
2022-12-03T17:51:21.490Z,76.17
2022-12-03T17:53:47.957Z,76.56
2022-12-03T17:56:14.343Z,76.56
2022-12-03T17:58:40.759Z,76.25
2022-12-03T18:01:09.346Z,76.71
2022-12-03T18:03:36.513Z,76.48
2022-12-03T18:06:03.759Z,76.58
2022-12-03T18:08:30.426Z,76.58
2022-12-03T18:10:56.948Z,77.19
2022-12-03T18:13:23.407Z,77.50
2022-12-03T18:15:49.843Z,77.39
2022-12-03T18:18:16.564Z,77.35
2022-12-03T18:20:44.816Z,77.26
2022-12-03T18:23:12.083Z,77.88
2022-12-03T18:25:38.522Z,77.73
2022-12-03T18:28:06.224Z,77.79
2022-12-03T18:30:32.713Z,77.81
2022-12-03T18:32:59.253Z,78.34
2022-12-03T18:35:25.795Z,78.65
2022-12-03T18:37:52.266Z,78.25
2022-12-03T18:40:23.854Z,78.75
2022-12-03T18:42:50.590Z,78.66
2022-12-03T18:45:21.502Z,78.54
2022-12-03T18:47:47.997Z,78.74
2022-12-03T18:50:14.648Z,78.84
2022-12-03T18:52:41.086Z,79.25
2022-12-03T18:55:08.141Z,78.85
2022-12-03T18:57:34.469Z,78.99
2022-12-03T19:00:00.874Z,79.03
2022-12-03T19:02:54.338Z,78.68
2022-12-03T19:05:13.951Z,78.98
2022-12-03T19:07:40.382Z,78.45
2022-12-03T19:10:07.525Z,78.02
2022-12-03T19:12:33.957Z,78.03
2022-12-03T19:15:00.407Z,77.54
2022-12-03T19:17:27.480Z,77.93
2022-12-03T19:19:56.104Z,77.33
2022-12-03T19:22:23.608Z,77.72
2022-12-03T19:24:50.394Z,77.77
2022-12-03T19:27:16.766Z,77.93
2022-12-03T19:29:43.171Z,77.02
2022-12-03T19:32:09.611Z,77.23
2022-12-03T19:34:36.265Z,77.06
2022-12-03T19:37:02.691Z,77.22
2022-12-03T19:39:29.126Z,77.27
2022-12-03T19:41:57.407Z,76.94
2022-12-03T19:44:23.827Z,77.28
2022-12-03T19:46:50.394Z,77.16
2022-12-03T19:49:18.548Z,77.36
2022-12-03T19:51:45.240Z,77.42
2022-12-03T19:54:12.310Z,77.15
2022-12-03T19:56:38.735Z,77.26
2022-12-03T19:59:05.423Z,77.12
2022-12-03T20:01:34.658Z,77.17
2022-12-03T20:04:07.247Z,76.77
2022-12-03T20:06:37.411Z,76.83
2022-12-03T20:09:11.394Z,77.17
2022-12-03T20:11:39.091Z,76.99
2022-12-03T20:14:08.668Z,76.86
2022-12-03T20:16:35.765Z,76.78
2022-12-03T20:19:05.679Z,76.84
2022-12-03T20:21:34.354Z,76.63
2022-12-03T20:24:01.351Z,76.94
2022-12-03T20:26:28.437Z,76.61
2022-12-03T20:28:56.791Z,76.73
2022-12-03T20:31:28.432Z,76.92
2022-12-03T20:33:58.532Z,76.87
2022-12-03T20:36:31.824Z,76.58
2022-12-03T20:39:08.644Z,76.46
2022-12-03T20:41:45.429Z,76.81
2022-12-03T20:44:26.405Z,76.31
2022-12-03T20:46:52.825Z,76.42
2022-12-03T20:49:19.188Z,76.29
2022-12-03T20:51:45.630Z,76.58
2022-12-03T20:54:12.064Z,76.61
2022-12-03T20:56:39.464Z,76.72
2022-12-03T20:59:14.320Z,76.32
2022-12-03T21:01:42.058Z,76.39
2022-12-03T21:04:10.702Z,76.15
2022-12-03T21:06:37.744Z,76.48
2022-12-03T21:09:06.417Z,76.54
2022-12-03T21:11:35.667Z,76.68
2022-12-03T21:14:03.256Z,76.57
2022-12-03T21:19:22.548Z,77.06
2022-12-03T21:21:51.999Z,76.64
2022-12-03T21:24:18.449Z,76.66
2022-12-03T21:26:44.988Z,76.73
2022-12-03T21:29:12.938Z,77.04
2022-12-03T21:31:40.006Z,77.05
2022-12-03T21:34:08.315Z,76.63
2022-12-03T21:36:34.701Z,76.85
2022-12-03T21:39:01.142Z,76.76
2022-12-03T21:41:27.610Z,76.64
2022-12-03T21:43:54.067Z,77.10
2022-12-03T21:47:12.049Z,76.66
2022-12-03T21:49:07.097Z,76.50
2022-12-03T21:51:33.529Z,76.44
2022-12-03T21:53:59.949Z,76.10
2022-12-03T21:56:26.394Z,76.69
2022-12-03T21:58:52.803Z,76.65
2022-12-03T22:01:24.715Z,76.57
2022-12-03T22:03:51.646Z,76.61
2022-12-03T22:06:20.934Z,76.71
2022-12-03T22:08:47.779Z,76.98
2022-12-03T22:11:20.051Z,77.42
2022-12-03T22:13:47.146Z,76.97
2022-12-03T22:16:17.147Z,77.18
2022-12-03T22:18:44.483Z,77.27
2022-12-03T22:21:17.401Z,77.33
2022-12-03T22:23:46.463Z,77.28
2022-12-03T22:26:15.062Z,76.78
2022-12-03T22:28:46.105Z,77.35
2022-12-03T22:31:13.624Z,77.34
2022-12-03T22:33:40.423Z,77.04
2022-12-03T22:36:14.677Z,76.95
2022-12-03T22:38:45.171Z,76.70
2022-12-03T22:41:12.987Z,77.05
2022-12-03T22:43:39.718Z,76.71
2022-12-03T22:46:07.384Z,76.69
2022-12-03T22:48:34.825Z,77.01
2022-12-03T22:51:01.354Z,76.99
2022-12-03T22:53:27.726Z,77.49
2022-12-03T22:55:56.058Z,77.08
2022-12-03T22:58:22.945Z,77.46
2022-12-03T23:00:49.504Z,77.70
2022-12-03T23:03:16.004Z,77.50
2022-12-03T23:05:42.397Z,77.28
2022-12-03T23:08:14.793Z,77.55
2022-12-03T23:10:47.494Z,77.59
2022-12-03T23:13:14.956Z,77.49
2022-12-03T23:15:49.562Z,77.69
2022-12-03T23:18:16.894Z,77.61
2022-12-03T23:20:48.953Z,77.79
2022-12-03T23:23:15.695Z,77.44
2022-12-03T23:25:42.275Z,77.32
2022-12-03T23:28:09.910Z,77.39
2022-12-03T23:30:37.817Z,77.32
2022-12-03T23:33:05.725Z,77.46
2022-12-03T23:35:33.198Z,76.87
2022-12-03T23:37:59.664Z,76.90
2022-12-03T23:40:28.555Z,77.18
2022-12-03T23:42:55.074Z,77.49
2022-12-03T23:45:21.607Z,77.30
2022-12-03T23:47:48.039Z,77.18
2022-12-03T23:50:14.633Z,77.38
2022-12-03T23:52:43.680Z,77.67
2022-12-03T23:55:10.511Z,77.50
2022-12-03T23:57:37.041Z,77.94
